Time;durP1;ratioP1;P1;durP2;ratioP2;P2;SDS_P1;SDS_P2;PMS_P1;PMS_P2;Temp;Humidity;BMP_temperature;BMP_pressure;BME280_temperature;BME280_humidity;BME280_pressure;Samples;Min_cycle;Max_cycle;Signal;HPM_P1;HPM_P2
2022/12/16 00:03:12;;;;;;;29.60;17.33;;;;;-2.50;100409.00;;;;9777489;30;20210;-77
2022/12/16 00:08:14;;;;;;;34.30;17.23;;;;;-2.30;100412.00;;;;9734426;30;20206;-79
2022/12/16 00:13:16;;;;;;;37.00;18.20;;;;;-2.20;100420.00;;;;9736115;30;20265;-79
2022/12/16 00:18:19;;;;;;;39.03;19.73;;;;;-2.00;100426.00;;;;9780594;30;20198;-78
2022/12/16 00:23:21;;;;;;;32.17;16.93;;;;;-1.90;100429.00;;;;9761745;30;20205;-77
2022/12/16 00:28:23;;;;;;;34.90;19.50;;;;;-1.90;100423.00;;;;9707673;30;20222;-78
2022/12/16 00:33:26;;;;;;;36.40;18.20;;;;;-1.80;100420.00;;;;9733750;30;20222;-78
2022/12/16 00:38:28;;;;;;;32.67;16.70;;;;;-1.70;100435.00;;;;9774383;30;20194;-78
2022/12/16 00:43:30;;;;;;;35.30;17.37;;;;;-1.60;100432.00;;;;9733985;30;20528;-78
2022/12/16 00:48:32;;;;;;;29.00;16.20;;;;;-1.60;100441.00;;;;9765654;30;20213;-78
2022/12/16 00:53:34;;;;;;;31.00;16.33;;;;;-1.50;100450.00;;;;9788061;30;20222;-78
2022/12/16 00:58:37;;;;;;;33.00;16.53;;;;;-1.40;100448.00;;;;9743237;30;20201;-78
2022/12/16 01:03:39;;;;;;;30.50;15.73;;;;;-1.40;100456.00;;;;9775942;30;20202;-78
2022/12/16 01:08:47;;;;;;;29.20;16.67;;;;;-1.30;100461.00;;;;9762619;30;20288;-78
2022/12/16 01:13:51;;;;;;;35.17;15.87;;;;;-1.30;100459.00;;;;9764288;30;20240;-78
2022/12/16 01:18:55;;;;;;;31.43;16.33;;;;;-1.20;100469.00;;;;9776644;30;20213;-77
2022/12/16 01:23:57;;;;;;;30.60;15.43;;;;;-1.20;100477.00;;;;9790654;30;20309;-78
2022/12/16 01:29:00;;;;;;;29.90;15.87;;;;;-1.20;100478.00;;;;9791153;30;20222;-79
2022/12/16 01:34:01;;;;;;;32.30;15.67;;;;;-1.20;100475.00;;;;9775593;30;20653;-78
2022/12/16 01:39:04;;;;;;;31.57;16.10;;;;;-1.20;100492.00;;;;9775676;30;20210;-79
2022/12/16 01:44:13;;;;;;;32.43;16.27;;;;;-1.10;100502.00;;;;9776324;30;20202;-79
2022/12/16 01:49:36;;;;;;;29.27;16.87;;;;;-1.10;100505.00;;;;9747670;30;20209;-79
2022/12/16 01:54:43;;;;;;;34.83;18.67;;;;;-1.10;100505.00;;;;9759880;30;20218;-79
2022/12/16 01:59:50;;;;;;;33.50;17.83;;;;;-1.10;100517.00;;;;9761231;30;20202;-78
2022/12/16 02:10:14;;;;;;;38.10;20.47;;;;;-1.00;100520.00;;;;9851116;30;20200;-79
2022/12/16 02:15:28;;;;;;;33.57;20.07;;;;;-1.00;100520.00;;;;9860478;30;20215;-78
2022/12/16 02:20:49;;;;;;;39.23;20.17;;;;;-1.00;100527.00;;;;9819708;30;20231;-79
2022/12/16 02:26:22;;;;;;;46.50;20.63;;;;;-0.90;100524.00;;;;9848509;30;20660;-77
2022/12/16 02:31:32;;;;;;;36.17;19.97;;;;;-0.90;100522.00;;;;9832140;30;20205;-78
2022/12/16 02:36:44;;;;;;;36.40;18.87;;;;;-0.80;100522.00;;;;9832378;30;20213;-78
2022/12/16 02:42:18;;;;;;;36.87;19.20;;;;;-0.80;100535.00;;;;9846777;30;20204;-78
2022/12/16 02:47:20;;;;;;;38.00;18.37;;;;;-0.80;100532.00;;;;9833679;30;20204;-77
2022/12/16 02:52:24;;;;;;;33.93;18.97;;;;;-0.70;100514.00;;;;9797558;30;20209;-79
2022/12/16 02:57:50;;;;;;;39.20;20.40;;;;;-0.70;100519.00;;;;9844663;30;20398;-79
2022/12/16 03:03:05;;;;;;;39.43;19.73;;;;;-0.70;100511.00;;;;9835843;30;20536;-79
2022/12/16 03:08:38;;;;;;;33.77;18.03;;;;;-0.70;100525.00;;;;9850759;30;20200;-78
2022/12/16 03:13:45;;;;;;;30.70;18.43;;;;;-0.70;100526.00;;;;9799725;30;20216;-78
2022/12/16 03:18:53;;;;;;;34.43;19.97;;;;;-0.70;100531.00;;;;9860732;30;20259;-78
2022/12/16 03:24:06;;;;;;;31.63;18.20;;;;;-0.60;100537.00;;;;9831169;30;20295;-78
2022/12/16 03:29:50;;;;;;;33.23;18.23;;;;;-0.60;100534.00;;;;9833401;30;20208;-78
2022/12/16 03:34:59;;;;;;;29.67;16.97;;;;;-0.50;100547.00;;;;9817439;30;20240;-78
2022/12/16 03:40:05;;;;;;;30.27;17.63;;;;;-0.50;100558.00;;;;9822947;30;20209;-78
2022/12/16 03:45:13;;;;;;;35.70;18.47;;;;;-0.50;100567.00;;;;9826264;30;20246;-78
2022/12/16 03:50:16;;;;;;;33.30;16.67;;;;;-0.50;100570.00;;;;9825066;30;20665;-79
2022/12/16 03:55:18;;;;;;;41.40;19.43;;;;;-0.50;100583.00;;;;9790958;30;20563;-79
2022/12/16 04:00:20;;;;;;;34.90;20.60;;;;;-0.50;100586.00;;;;9824040;30;20204;-78
2022/12/16 04:05:22;;;;;;;37.87;19.13;;;;;-0.50;100587.00;;;;9810602;30;20233;-79
2022/12/16 04:26:25;;;;;;;39.17;19.53;;;;;-0.60;100597.00;;;;9865708;30;20277;-78
2022/12/16 04:31:27;;;;;;;44.00;18.77;;;;;-0.60;100609.00;;;;9849297;30;20215;-78
